createdAt,value
2018-08-25T00:02:18.919Z,63.10
2018-08-25T00:04:47.358Z,63.60
2018-08-25T00:07:15.760Z,63.70
2018-08-25T00:09:44.240Z,63.90
2018-08-25T00:12:12.635Z,64.00
2018-08-25T00:14:41.026Z,64.50
2018-08-25T00:17:09.452Z,64.60
2018-08-25T00:19:37.864Z,64.60
2018-08-25T00:22:06.283Z,64.50
2018-08-25T00:24:34.703Z,64.70
2018-08-25T00:27:03.110Z,64.80
2018-08-25T00:29:31.547Z,65.00
2018-08-25T00:31:59.963Z,64.80
2018-08-25T00:34:28.394Z,65.00
2018-08-25T00:36:56.763Z,65.30
2018-08-25T00:39:25.188Z,65.00
2018-08-25T00:41:53.608Z,65.20
2018-08-25T00:44:22.008Z,65.00
2018-08-25T00:46:50.421Z,64.90
2018-08-25T00:49:18.854Z,64.90
2018-08-25T00:51:47.299Z,65.00
2018-08-25T00:54:15.746Z,64.90
2018-08-25T00:56:44.191Z,64.70
2018-08-25T00:59:12.589Z,64.60
2018-08-25T01:01:41.060Z,64.60
2018-08-25T01:04:09.480Z,64.50
2018-08-25T01:06:37.972Z,64.50
2018-08-25T01:10:10.625Z,64.40
2018-08-25T01:12:39.147Z,64.30
2018-08-25T01:15:08.082Z,64.20
2018-08-25T01:17:36.830Z,64.20
2018-08-25T01:20:05.465Z,64.20
2018-08-25T01:22:33.957Z,64.10
2018-08-25T01:25:02.359Z,64.00
2018-08-25T01:27:30.870Z,64.00
2018-08-25T01:29:59.256Z,63.90
2018-08-25T01:32:27.710Z,63.90
2018-08-25T01:34:56.160Z,63.70
2018-08-25T01:37:24.589Z,63.90
2018-08-25T01:39:53.023Z,64.10
2018-08-25T01:42:21.469Z,63.90
2018-08-25T01:44:49.872Z,64.10
2018-08-25T01:47:18.319Z,64.10
2018-08-25T01:49:46.774Z,64.40
2018-08-25T01:52:15.163Z,64.40
2018-08-25T01:54:43.707Z,64.50
2018-08-25T01:57:12.176Z,64.50
2018-08-25T01:59:40.600Z,64.80
2018-08-25T02:02:08.992Z,65.10
2018-08-25T02:04:37.434Z,65.10
2018-08-25T02:07:05.991Z,65.60
2018-08-25T02:09:34.472Z,65.80
2018-08-25T02:12:02.848Z,66.00
2018-08-25T02:14:31.279Z,66.50
2018-08-25T02:16:59.675Z,66.80
2018-08-25T02:19:28.067Z,66.70
2018-08-25T02:21:56.499Z,66.90
2018-08-25T02:24:24.919Z,66.90
2018-08-25T02:26:53.421Z,67.40
2018-08-25T02:29:21.797Z,67.80
2018-08-25T02:31:50.265Z,67.80
2018-08-25T02:34:18.664Z,68.30
2018-08-25T02:36:47.108Z,68.70
2018-08-25T02:39:15.495Z,69.00
2018-08-25T02:41:44.360Z,69.30
2018-08-25T02:44:12.847Z,69.30
2018-08-25T02:46:41.280Z,69.30
2018-08-25T02:49:09.715Z,69.70
2018-08-25T02:51:38.188Z,69.70
2018-08-25T02:54:06.661Z,70.00
2018-08-25T02:56:35.084Z,70.40
2018-08-25T02:59:03.541Z,70.90
2018-08-25T03:01:31.926Z,71.10
2018-08-25T03:04:00.336Z,71.20
2018-08-25T03:06:28.804Z,71.40
2018-08-25T03:08:57.218Z,71.60
2018-08-25T03:11:25.635Z,71.90
2018-08-25T03:13:54.137Z,72.00
2018-08-25T03:16:22.480Z,72.10
2018-08-25T03:18:50.919Z,72.10
2018-08-25T03:21:19.329Z,72.30
2018-08-25T03:23:47.699Z,72.50
2018-08-25T03:26:16.293Z,72.50
2018-08-25T03:28:44.676Z,72.60
2018-08-25T03:31:13.121Z,72.80
2018-08-25T03:33:41.578Z,72.70
2018-08-25T03:36:09.958Z,72.60
2018-08-25T03:38:38.476Z,72.90
2018-08-25T03:41:08.151Z,73.10
2018-08-25T03:43:36.725Z,73.20
2018-08-25T03:46:05.184Z,73.10
2018-08-25T03:48:33.565Z,73.50
2018-08-25T03:51:02.008Z,73.50
2018-08-25T03:53:30.388Z,73.70
2018-08-25T03:55:58.784Z,73.90
2018-08-25T03:58:27.208Z,73.90
2018-08-25T04:00:55.617Z,74.10
2018-08-25T04:03:24.947Z,74.20
2018-08-25T04:05:53.302Z,74.50
2018-08-25T04:08:21.781Z,74.40
2018-08-25T04:10:50.195Z,74.50
2018-08-25T04:13:18.607Z,74.60
2018-08-25T04:15:48.827Z,74.60
2018-08-25T04:18:17.323Z,74.70
2018-08-25T04:20:45.679Z,74.50
2018-08-25T04:23:14.148Z,74.40
2018-08-25T04:25:42.564Z,74.40
2018-08-25T04:28:11.027Z,74.20
2018-08-25T04:30:39.496Z,74.10
2018-08-25T04:33:07.920Z,74.30
2018-08-25T04:35:36.387Z,74.10
2018-08-25T04:38:04.917Z,74.40
2018-08-25T04:40:33.336Z,74.50
2018-08-25T04:43:01.736Z,74.60
2018-08-25T04:45:30.196Z,74.60
2018-08-25T04:47:58.570Z,74.60
2018-08-25T04:50:27.027Z,74.70
2018-08-25T04:52:55.495Z,74.80
2018-08-25T04:55:23.987Z,75.00
2018-08-25T04:57:52.375Z,75.30
2018-08-25T05:00:21.856Z,75.20
2018-08-25T05:02:50.283Z,75.10
2018-08-25T05:05:18.754Z,75.00
2018-08-25T05:07:47.253Z,75.10
2018-08-25T05:10:16.009Z,75.20
2018-08-25T05:12:44.417Z,75.30
2018-08-25T05:15:12.868Z,75.50
2018-08-25T05:17:41.331Z,75.50
2018-08-25T05:20:09.748Z,75.50
2018-08-25T05:22:38.203Z,75.50
2018-08-25T05:25:07.356Z,75.50
2018-08-25T05:27:36.492Z,75.50
2018-08-25T05:30:06.123Z,75.30
2018-08-25T05:32:34.615Z,75.40
2018-08-25T05:35:03.130Z,75.40
2018-08-25T05:37:31.601Z,75.40
2018-08-25T05:40:00.087Z,75.20
2018-08-25T05:42:28.555Z,75.20
2018-08-25T05:44:56.902Z,75.40
2018-08-25T05:47:25.409Z,75.50
2018-08-25T05:49:53.836Z,75.70
2018-08-25T05:52:22.267Z,75.90
2018-08-25T05:54:50.728Z,76.00
2018-08-25T05:57:19.228Z,76.00
2018-08-25T05:59:47.695Z,75.90
2018-08-25T06:02:16.151Z,76.00
2018-08-25T06:04:44.674Z,76.30
2018-08-25T06:07:13.190Z,76.60
2018-08-25T06:09:41.591Z,77.10
2018-08-25T06:12:10.065Z,78.30
2018-08-25T06:14:38.692Z,79.60
2018-08-25T06:17:07.216Z,79.90
2018-08-25T06:19:35.667Z,82.00
2018-08-25T06:22:04.151Z,83.50
2018-08-25T06:24:32.687Z,84.10
2018-08-25T06:27:01.136Z,84.90
2018-08-25T06:29:29.873Z,87.40
2018-08-25T06:31:58.301Z,90.20
2018-08-25T06:34:26.732Z,90.30
2018-08-25T06:36:55.267Z,91.90
2018-08-25T06:39:23.688Z,91.90
2018-08-25T06:41:52.099Z,91.90
2018-08-25T06:44:20.561Z,91.90
2018-08-25T06:46:49.023Z,91.90
2018-08-25T06:49:17.487Z,91.90
2018-08-25T06:51:45.943Z,91.90
2018-08-25T06:54:14.406Z,91.90
2018-08-25T06:56:42.802Z,91.90
2018-08-25T06:59:11.545Z,91.90
2018-08-25T07:01:40.065Z,91.90
2018-08-25T07:04:08.655Z,91.90
2018-08-25T07:06:37.134Z,91.90
2018-08-25T07:09:08.407Z,91.90
2018-08-25T07:11:39.804Z,91.90
2018-08-25T07:14:08.388Z,91.90
2018-08-25T07:16:36.924Z,91.90
2018-08-25T07:19:05.576Z,91.90
2018-08-25T07:21:33.949Z,91.90
2018-08-25T07:24:02.424Z,91.90
2018-08-25T07:26:31.064Z,91.90
2018-08-25T07:28:59.516Z,91.90
2018-08-25T07:31:27.991Z,91.90
2018-08-25T07:33:56.490Z,91.90
2018-08-25T07:36:25.019Z,91.90
2018-08-25T07:38:53.422Z,91.90
2018-08-25T07:41:21.783Z,91.90
2018-08-25T07:43:50.241Z,91.90
2018-08-25T07:46:18.688Z,91.90
2018-08-25T07:48:47.116Z,91.90
2018-08-25T07:51:15.503Z,91.90
2018-08-25T07:53:44.138Z,91.90
2018-08-25T07:56:12.831Z,91.90
2018-08-25T07:58:41.402Z,91.90
2018-08-25T08:01:09.890Z,91.90
2018-08-25T08:03:38.371Z,91.90
2018-08-25T08:06:06.927Z,91.90
2018-08-25T08:08:35.732Z,91.90
2018-08-25T08:11:04.262Z,91.90
2018-08-25T08:13:32.953Z,91.90
2018-08-25T08:16:01.585Z,91.90
2018-08-25T08:18:30.242Z,91.90
2018-08-25T08:20:58.794Z,91.90
2018-08-25T08:23:27.335Z,91.90
2018-08-25T08:25:55.886Z,91.90
2018-08-25T08:28:24.435Z,91.90
2018-08-25T08:30:52.906Z,91.90
2018-08-25T08:33:21.471Z,91.90
2018-08-25T08:35:49.931Z,91.90
2018-08-25T08:38:20.170Z,91.90
2018-08-25T08:40:49.639Z,91.90
2018-08-25T08:43:19.762Z,91.90
2018-08-25T08:45:48.638Z,91.90
2018-08-25T08:48:17.605Z,91.90
2018-08-25T08:50:46.679Z,91.90
2018-08-25T08:53:15.117Z,91.90
2018-08-25T08:55:43.559Z,91.90
2018-08-25T08:58:12.471Z,91.90
2018-08-25T09:00:41.193Z,91.90
2018-08-25T09:03:09.756Z,91.90
2018-08-25T09:05:38.817Z,91.90
2018-08-25T09:08:07.856Z,91.90
2018-08-25T09:10:36.427Z,91.90
2018-08-25T09:13:05.933Z,91.90
2018-08-25T09:15:34.485Z,91.90
2018-08-25T09:18:03.231Z,91.90
2018-08-25T09:20:31.787Z,91.90
2018-08-25T09:23:00.275Z,91.90
2018-08-25T09:25:28.892Z,91.90
2018-08-25T09:27:57.307Z,91.90
2018-08-25T09:30:25.754Z,91.90
2018-08-25T09:32:54.389Z,91.90
2018-08-25T09:35:22.897Z,91.90
2018-08-25T09:37:51.412Z,91.90
2018-08-25T09:40:20.022Z,91.90
2018-08-25T09:42:48.404Z,91.90
2018-08-25T09:45:16.928Z,91.90
2018-08-25T09:47:45.357Z,91.90
2018-08-25T09:50:13.869Z,91.90
2018-08-25T09:52:42.460Z,91.90
2018-08-25T09:55:11.022Z,91.90
2018-08-25T09:57:39.540Z,91.90
2018-08-25T10:00:10.081Z,91.90
2018-08-25T10:02:38.696Z,91.30
2018-08-25T10:05:07.923Z,88.90
2018-08-25T10:07:36.338Z,88.80
2018-08-25T10:10:05.771Z,91.90
2018-08-25T10:12:34.369Z,91.20
2018-08-25T10:15:02.856Z,88.20
2018-08-25T10:17:31.334Z,86.50
2018-08-25T10:20:00.046Z,85.30
2018-08-25T10:22:28.551Z,83.70
2018-08-25T10:24:57.717Z,85.20
2018-08-25T10:27:26.280Z,87.50
2018-08-25T10:29:54.783Z,83.00
2018-08-25T10:32:23.243Z,88.10
2018-08-25T10:34:51.702Z,78.50
2018-08-25T10:37:20.045Z,77.60
2018-08-25T10:39:49.505Z,72.80
2018-08-25T10:42:17.920Z,71.40
2018-08-25T10:44:47.136Z,71.10
2018-08-25T10:47:15.675Z,73.50
2018-08-25T10:49:44.097Z,66.50
2018-08-25T10:52:12.607Z,67.50
2018-08-25T10:54:41.088Z,68.60
2018-08-25T10:57:09.704Z,66.00
2018-08-25T10:59:38.155Z,65.40
2018-08-25T11:02:06.643Z,64.20
2018-08-25T11:04:36.937Z,63.20
2018-08-25T11:07:05.351Z,62.30
2018-08-25T11:09:33.925Z,64.10
2018-08-25T11:12:02.451Z,64.20
2018-08-25T11:14:30.916Z,61.40
2018-08-25T11:16:59.370Z,63.40
2018-08-25T11:19:28.004Z,66.70
2018-08-25T11:21:56.617Z,64.00
2018-08-25T11:24:26.277Z,61.90
2018-08-25T11:26:54.852Z,59.90
2018-08-25T11:29:24.538Z,60.50
2018-08-25T11:31:53.094Z,62.10
2018-08-25T11:34:21.648Z,59.40
2018-08-25T11:36:50.387Z,60.60
2018-08-25T11:39:18.876Z,58.80
2018-08-25T11:41:47.425Z,55.00
2018-08-25T11:44:15.977Z,50.40
2018-08-25T11:46:44.424Z,51.70
2018-08-25T11:49:13.356Z,49.40
2018-08-25T11:51:41.912Z,47.90
2018-08-25T11:54:10.434Z,45.70
2018-08-25T11:56:39.070Z,45.60
2018-08-25T11:59:07.903Z,46.50
2018-08-25T12:01:36.521Z,45.60
2018-08-25T12:04:05.238Z,45.50
2018-08-25T12:06:33.857Z,42.60
2018-08-25T12:09:02.435Z,42.80
2018-08-25T12:11:30.992Z,41.90
2018-08-25T12:13:59.538Z,42.80
2018-08-25T12:16:31.003Z,42.70
2018-08-25T12:18:59.494Z,40.00
2018-08-25T12:21:27.980Z,40.40
2018-08-25T12:23:56.504Z,40.60
2018-08-25T12:26:25.660Z,40.60
2018-08-25T12:28:54.623Z,41.90
2018-08-25T12:31:23.477Z,41.20
2018-08-25T12:33:51.990Z,42.00
2018-08-25T12:36:20.780Z,39.00
2018-08-25T12:38:49.488Z,38.70
2018-08-25T12:41:18.528Z,38.60
2018-08-25T12:43:47.295Z,38.30
2018-08-25T12:46:16.347Z,37.10
2018-08-25T12:48:44.923Z,37.20
2018-08-25T12:51:13.487Z,35.90
2018-08-25T12:53:42.129Z,33.90
2018-08-25T12:56:10.697Z,33.80
2018-08-25T12:58:39.229Z,33.70
2018-08-25T13:01:07.661Z,34.70
2018-08-25T13:03:36.212Z,34.30
2018-08-25T13:06:04.749Z,35.50
2018-08-25T13:08:33.164Z,33.60
2018-08-25T13:11:01.686Z,33.50
2018-08-25T13:13:30.219Z,34.00
2018-08-25T13:15:58.809Z,33.70
2018-08-25T13:18:27.288Z,33.50
2018-08-25T13:20:56.537Z,34.00
2018-08-25T13:23:25.000Z,33.00
2018-08-25T13:25:53.543Z,33.10
2018-08-25T13:28:22.039Z,33.80
2018-08-25T13:30:50.591Z,32.50
2018-08-25T13:33:19.019Z,32.20
2018-08-25T13:35:47.580Z,31.40
2018-08-25T13:38:19.948Z,30.10
2018-08-25T13:40:48.745Z,29.60
2018-08-25T13:43:17.425Z,30.10
2018-08-25T13:45:45.897Z,29.70
2018-08-25T13:48:14.331Z,29.60
2018-08-25T13:50:42.797Z,29.50
2018-08-25T13:53:11.430Z,29.80
2018-08-25T13:55:40.212Z,30.40
2018-08-25T13:58:08.683Z,30.60
2018-08-25T14:00:37.254Z,31.20
2018-08-25T14:03:05.767Z,31.10
2018-08-25T14:05:34.264Z,31.50
2018-08-25T14:08:02.773Z,32.70
2018-08-25T14:10:31.365Z,32.30
2018-08-25T14:13:00.060Z,32.90
2018-08-25T14:15:28.637Z,33.10
2018-08-25T14:17:57.362Z,32.40
2018-08-25T14:20:25.852Z,33.10
2018-08-25T14:22:54.444Z,33.10
2018-08-25T14:25:22.952Z,32.70
2018-08-25T14:27:51.487Z,33.90
2018-08-25T14:30:20.124Z,34.10
2018-08-25T14:32:48.636Z,33.80
2018-08-25T14:35:17.182Z,33.40
2018-08-25T14:37:45.588Z,32.00
2018-08-25T14:40:14.140Z,30.90
2018-08-25T14:42:42.637Z,31.10
2018-08-25T14:45:11.072Z,30.40
2018-08-25T14:47:39.575Z,30.80
2018-08-25T14:50:08.147Z,31.50
2018-08-25T14:52:36.606Z,31.20
2018-08-25T14:55:05.076Z,31.20
2018-08-25T14:57:33.524Z,30.90
2018-08-25T15:00:02.003Z,30.90
2018-08-25T15:02:30.492Z,30.80
2018-08-25T15:04:59.045Z,31.30
2018-08-25T15:07:27.504Z,30.80
2018-08-25T15:09:56.007Z,31.10
2018-08-25T15:12:24.588Z,30.20
2018-08-25T15:14:53.120Z,30.50
2018-08-25T15:17:21.648Z,30.10
2018-08-25T15:19:50.141Z,29.70
2018-08-25T15:22:18.572Z,30.20
2018-08-25T15:24:47.029Z,30.40
2018-08-25T15:27:15.525Z,30.50
2018-08-25T15:29:43.992Z,30.50
2018-08-25T15:32:13.104Z,29.70
2018-08-25T15:34:41.663Z,29.80
2018-08-25T15:37:10.412Z,30.10
2018-08-25T15:39:38.864Z,30.10
2018-08-25T15:42:07.511Z,29.80
2018-08-25T15:44:36.537Z,30.60
2018-08-25T15:47:05.056Z,32.00
2018-08-25T15:49:33.504Z,32.60
2018-08-25T15:52:02.074Z,32.90
2018-08-25T15:54:30.553Z,33.30
2018-08-25T15:56:59.137Z,33.10
2018-08-25T15:59:28.254Z,32.80
2018-08-25T16:01:56.705Z,33.30
2018-08-25T16:04:25.265Z,33.90
2018-08-25T16:06:53.775Z,34.60
2018-08-25T16:09:22.239Z,35.10
2018-08-25T16:11:50.762Z,35.70
2018-08-25T16:14:19.167Z,35.70
2018-08-25T16:16:47.588Z,35.70
2018-08-25T16:19:16.209Z,35.80
2018-08-25T16:21:44.612Z,35.70
2018-08-25T16:24:17.556Z,35.80
2018-08-25T16:26:46.133Z,35.40
2018-08-25T16:29:15.501Z,35.40
2018-08-25T16:31:43.997Z,35.60
2018-08-25T16:34:12.524Z,36.00
2018-08-25T16:36:41.030Z,36.50
2018-08-25T16:39:09.486Z,36.40
2018-08-25T16:41:38.085Z,36.30
2018-08-25T16:44:06.617Z,36.60
2018-08-25T16:46:35.126Z,36.80
2018-08-25T16:49:03.618Z,36.90
2018-08-25T16:51:32.098Z,37.00
2018-08-25T16:54:00.930Z,37.20
2018-08-25T16:56:29.484Z,36.90
2018-08-25T16:58:57.980Z,36.40
2018-08-25T17:01:26.495Z,36.70
2018-08-25T17:03:55.056Z,37.10
2018-08-25T17:06:23.497Z,37.20
2018-08-25T17:08:52.098Z,37.20
2018-08-25T17:11:20.460Z,37.20
2018-08-25T17:13:48.944Z,37.50
2018-08-25T17:16:17.431Z,37.50
2018-08-25T17:18:45.908Z,37.90
2018-08-25T17:21:14.361Z,38.50
2018-08-25T17:23:42.875Z,38.90
2018-08-25T17:26:11.345Z,39.30
2018-08-25T17:28:39.774Z,39.40
2018-08-25T17:31:08.247Z,39.50
2018-08-25T17:33:36.703Z,39.50
2018-08-25T17:36:05.601Z,39.90
2018-08-25T17:38:34.017Z,40.30
2018-08-25T17:41:02.583Z,40.60
2018-08-25T17:43:31.123Z,40.90
2018-08-25T17:45:59.794Z,41.00
2018-08-25T17:48:28.302Z,41.20
2018-08-25T17:50:56.778Z,41.90
2018-08-25T17:53:26.640Z,42.10
2018-08-25T17:55:55.155Z,42.90
2018-08-25T17:58:23.608Z,43.60
2018-08-25T18:00:52.227Z,43.00
2018-08-25T18:03:20.660Z,43.40
2018-08-25T18:05:49.282Z,42.90
2018-08-25T18:08:17.724Z,43.00
2018-08-25T18:10:46.222Z,42.80
2018-08-25T18:13:14.605Z,43.20
2018-08-25T18:15:43.079Z,43.20
2018-08-25T18:18:11.532Z,43.20
2018-08-25T18:20:40.000Z,43.00
2018-08-25T18:23:08.592Z,43.20
2018-08-25T18:25:37.060Z,43.70
2018-08-25T18:28:05.615Z,43.80
2018-08-25T18:30:34.101Z,44.20
2018-08-25T18:33:02.555Z,44.50
2018-08-25T18:35:31.221Z,44.70
2018-08-25T18:37:59.752Z,44.80
2018-08-25T18:40:28.288Z,45.20
2018-08-25T18:42:56.858Z,46.40
2018-08-25T18:45:25.402Z,49.40
2018-08-25T18:47:53.897Z,52.30
2018-08-25T18:50:22.391Z,53.10
2018-08-25T18:52:50.922Z,54.50
2018-08-25T18:55:19.374Z,55.40
2018-08-25T18:57:47.882Z,55.60
2018-08-25T19:00:20.758Z,56.10
2018-08-25T19:02:49.271Z,56.40
2018-08-25T19:05:17.624Z,57.10
2018-08-25T19:07:46.092Z,58.00
2018-08-25T19:10:14.524Z,58.00
2018-08-25T19:12:42.925Z,57.80
2018-08-25T19:15:11.369Z,57.90
2018-08-25T19:17:39.807Z,58.00
2018-08-25T19:20:08.307Z,57.70
2018-08-25T19:22:36.783Z,58.20
2018-08-25T19:25:06.121Z,58.40
2018-08-25T19:27:34.793Z,58.50
2018-08-25T19:30:03.196Z,58.90
2018-08-25T19:32:31.636Z,59.00
2018-08-25T19:35:00.052Z,59.00
2018-08-25T19:37:28.464Z,58.40
2018-08-25T19:39:56.913Z,58.60
2018-08-25T19:42:25.626Z,58.70
2018-08-25T19:44:54.132Z,58.50
2018-08-25T19:47:22.524Z,58.80
2018-08-25T19:49:51.096Z,59.30
2018-08-25T19:52:20.164Z,59.70
2018-08-25T19:54:48.684Z,59.10
2018-08-25T19:57:17.210Z,58.90
2018-08-25T19:59:45.812Z,58.30
2018-08-25T20:02:14.389Z,59.10
2018-08-25T20:04:42.999Z,59.70
2018-08-25T20:07:12.174Z,59.40
2018-08-25T20:09:41.117Z,59.40
2018-08-25T20:12:09.689Z,59.70
2018-08-25T20:14:38.444Z,59.90
2018-08-25T20:17:07.053Z,59.90
2018-08-25T20:19:36.367Z,59.50
2018-08-25T20:22:06.321Z,60.80
2018-08-25T20:24:34.853Z,60.80
2018-08-25T20:27:03.383Z,61.50
2018-08-25T20:29:31.912Z,61.10
2018-08-25T20:32:00.581Z,61.60
2018-08-25T20:34:29.081Z,61.40
2018-08-25T20:36:57.567Z,61.70
2018-08-25T20:39:26.019Z,61.70
2018-08-25T20:41:54.522Z,60.70
2018-08-25T20:44:23.061Z,61.10
2018-08-25T20:46:55.622Z,61.00
2018-08-25T20:49:24.265Z,61.40
2018-08-25T20:51:53.366Z,61.90
2018-08-25T20:54:21.835Z,62.50
2018-08-25T20:56:50.334Z,62.40
2018-08-25T20:59:18.820Z,62.60
2018-08-25T21:01:48.383Z,62.50
2018-08-25T21:04:16.925Z,61.80
2018-08-25T21:06:45.471Z,62.20
2018-08-25T21:09:21.228Z,62.70
2018-08-25T21:11:49.682Z,62.70
2018-08-25T21:14:19.052Z,63.20
2018-08-25T21:16:47.502Z,63.60
2018-08-25T21:19:16.728Z,63.30
2018-08-25T21:21:45.968Z,63.30
2018-08-25T21:24:14.659Z,63.60
2018-08-25T21:26:44.045Z,63.50
2018-08-25T21:29:12.552Z,63.60
2018-08-25T21:31:41.872Z,62.80
2018-08-25T21:34:11.324Z,63.30
2018-08-25T21:36:39.847Z,63.00
2018-08-25T21:39:10.659Z,63.50
2018-08-25T21:41:40.030Z,63.70
2018-08-25T21:44:08.757Z,63.50
2018-08-25T21:46:37.709Z,64.40
2018-08-25T21:49:06.219Z,64.50
2018-08-25T21:51:35.485Z,63.80
2018-08-25T21:54:03.984Z,64.90
2018-08-25T21:56:32.592Z,64.20
2018-08-25T21:59:02.030Z,65.00
2018-08-25T22:01:35.906Z,65.30
2018-08-25T22:04:04.444Z,65.70
2018-08-25T22:06:32.903Z,65.60
2018-08-25T22:09:01.436Z,65.20
2018-08-25T22:11:29.961Z,65.30
2018-08-25T22:13:58.388Z,65.40
2018-08-25T22:16:26.837Z,65.40
2018-08-25T22:18:55.283Z,65.90
2018-08-25T22:21:23.789Z,66.30
2018-08-25T22:23:52.266Z,66.90
2018-08-25T22:26:21.109Z,66.70
2018-08-25T22:28:49.579Z,66.80
2018-08-25T22:31:18.079Z,66.90
2018-08-25T22:33:47.136Z,66.80
2018-08-25T22:36:15.555Z,66.00
2018-08-25T22:38:44.033Z,66.60
2018-08-25T22:41:12.562Z,67.40
2018-08-25T22:43:41.083Z,68.00
2018-08-25T22:46:10.195Z,68.00
2018-08-25T22:48:39.202Z,67.10
2018-08-25T22:51:07.660Z,67.70
2018-08-25T22:53:37.163Z,67.40
2018-08-25T22:56:05.673Z,67.30
2018-08-25T22:58:34.227Z,67.20
2018-08-25T23:01:02.768Z,67.30
2018-08-25T23:03:31.231Z,67.50
2018-08-25T23:05:59.752Z,66.90
2018-08-25T23:08:28.257Z,67.30
2018-08-25T23:10:56.718Z,67.00
2018-08-25T23:13:25.249Z,66.90
2018-08-25T23:15:53.798Z,66.50
2018-08-25T23:18:22.255Z,67.20
2018-08-25T23:20:50.772Z,66.80
2018-08-25T23:23:19.296Z,67.30
2018-08-25T23:25:47.794Z,67.70
2018-08-25T23:28:16.300Z,68.30
2018-08-25T23:30:44.792Z,68.50
2018-08-25T23:33:13.240Z,68.90
2018-08-25T23:35:41.692Z,69.10
2018-08-25T23:38:10.168Z,69.50
2018-08-25T23:40:38.603Z,69.70
2018-08-25T23:43:07.042Z,69.50
2018-08-25T23:45:35.452Z,69.50
2018-08-25T23:48:03.994Z,69.70
2018-08-25T23:50:32.413Z,69.70
2018-08-25T23:53:00.856Z,70.00
2018-08-25T23:55:29.335Z,69.90
2018-08-25T23:57:57.827Z,69.70
